Aérodrome :
LOGIN :

S'inscrire | Disclaimer

   EN    FR    IT 

 










Légende :    VFR   VFR Marginal   IFR   IFR Intensif   IFR Très Intensif
Visi : 
Plafond : 
>= 8 km
>= 3000ft
5 à 8 km
1000 à 3000 ft
1500m à 5 km
500 à 1000 ft
800 à 1500m
200 à 500 ft
< 800m
< 200 ft
Symboles :   Orages  Brouillard  Fortes neiges  Fortes précipitations  Vent > 20 kt
SIGMETs :   Divers  Orages  Givrage  Turbulence  Onde Orograph.  Cendres Volcan.







- Altitude de l'aérodrome : 1000 ft
- Code IATA : PEV


LHPP - Pécs Pogany

DERNIER METAR :
  • 151115Z 21004KT 9999 BKN020 BKN083 11/06 Q1001

METARs EXPIRÉS :
  • 151045Z 20007KT 9999 BKN020 BKN083 11/06 Q1001 RESHRA
  • 151015Z 16005KT 9999 BKN020 BKN083 10/06 Q1001 RESHRA
  • 150945Z 12003KT 9999 SCT020 BKN083 09/05 Q1001
  • 150915Z 15004KT 9999 SCT020 BKN083 10/06 Q1001
  • 150845Z 15004KT 9999 SCT020 BKN083 08/05 Q1001

TAF TAF LHPP
Valide du 15 à 12h jusqu'au 15 à 21h UTC


151115Z 1512/1521 18005KT 9999 BKN020 BKN080
PROB30
TEMPO 1512/1516 5000 SHRA SCT015 FEW020TCU BKN030 OVC060
BECMG 1514/1517 5000 RA BKN010 OVC025
BECMG 1517/1520 34008KT
Pas de NOTAMs connus pour ce terrain.
1 SIGMET publié pour la FIR Budapest (LHCC) :
 
Orages noyés dans la masse
LHCC SIGMET 05 VALID 151020/151220 LHBP
LHCC BUDAPEST FIR EMBD TS OBS APRX 40KM WID LINE BTN N4645 E01905 - N4705 E02150 TOP FL260 MOV NNE NC=



MET'MAP, la Météo Aéronautique d'un coup d'oeil ! - Copyright ORBIFLY Décembre 2007 - Disclaimer

ORBIFLY MET'MAP TEAM :

Programmation & Développement : Alexandra Zaïnal
Conception & Développement : Baudouin d'Aumeries
Co-Programmation & Développement : Marc-Olivier Méhu
Soutien technique & logistique : Manuel Goepfert

Contact : metmap@orbifly.com




SOURCES & CREDITS :

   NOAA